createdAt,value
2023-04-18T16:20:53.465Z,99372.31
2023-04-18T16:23:20.626Z,99376.69
2023-04-18T16:25:47.358Z,99380.22
2023-04-18T16:28:14.170Z,99376.72
2023-04-18T16:30:43.874Z,99375.28
2023-04-18T16:33:10.715Z,99380.28
2023-04-18T16:35:37.419Z,99375.69
2023-04-18T16:38:05.907Z,99369.34
2023-04-18T16:40:34.373Z,99368.00
2023-04-18T16:43:02.264Z,99370.69
2023-04-18T16:45:28.927Z,99370.56
2023-04-18T16:47:55.648Z,99369.72
2023-04-18T16:50:22.766Z,99374.19
2023-04-18T16:52:49.539Z,99366.22
2023-04-18T16:55:17.531Z,99376.97
2023-04-18T16:57:44.289Z,99370.31
2023-04-18T17:00:13.576Z,99375.63
2023-04-18T17:02:43.453Z,99378.63
2023-04-18T17:05:11.043Z,99384.19
2023-04-18T17:07:37.683Z,99376.53
2023-04-18T17:10:04.672Z,99370.03
2023-04-18T17:12:32.644Z,99372.53
2023-04-18T17:14:59.235Z,99383.50
2023-04-18T17:17:25.863Z,99371.88
2023-04-18T17:19:52.518Z,99374.81
2023-04-18T17:22:19.191Z,99375.03
2023-04-18T17:24:45.768Z,99375.38
2023-04-18T17:27:12.550Z,99379.19
2023-04-18T17:29:40.965Z,99375.22
2023-04-18T17:32:07.925Z,99379.19
2023-04-18T17:34:34.604Z,99381.63
2023-04-18T17:37:05.813Z,99386.16
2023-04-18T17:39:32.904Z,99380.19
2023-04-18T17:42:00.325Z,99380.63
2023-04-18T17:44:26.925Z,99383.66
2023-04-18T17:46:54.906Z,99387.28
2023-04-18T17:49:21.845Z,99385.44
2023-04-18T17:51:48.505Z,99384.91
2023-04-18T17:54:15.184Z,99385.91
2023-04-18T17:56:42.083Z,99384.09
2023-04-18T17:59:09.887Z,99381.84
2023-04-18T18:01:36.771Z,99390.41
2023-04-18T18:04:05.896Z,99392.75
2023-04-18T18:06:32.591Z,99390.72
2023-04-18T18:08:59.159Z,99387.16
2023-04-18T18:11:27.244Z,99387.59
2023-04-18T18:13:55.558Z,99389.72
2023-04-18T18:16:23.911Z,99397.97
2023-04-18T18:18:51.067Z,99398.75
2023-04-18T18:21:19.199Z,99391.66
2023-04-18T18:23:45.963Z,99396.03
2023-04-18T18:26:12.576Z,99399.91
2023-04-18T18:28:39.238Z,99401.34
2023-04-18T18:31:05.931Z,99405.44
2023-04-18T18:33:32.540Z,99402.91
2023-04-18T18:35:59.601Z,99399.69
2023-04-18T18:38:27.599Z,99402.69
2023-04-18T18:40:54.201Z,99405.97
2023-04-18T18:43:20.939Z,99417.16
2023-04-18T18:45:47.945Z,99418.56
2023-04-18T18:48:15.396Z,99416.41
2023-04-18T18:50:42.073Z,99423.66
2023-04-18T18:53:08.802Z,99424.69
2023-04-18T18:55:37.141Z,99421.81
2023-04-18T18:58:03.758Z,99428.28
2023-04-18T19:00:30.517Z,99429.03
2023-04-18T19:02:57.225Z,99429.69
2023-04-18T19:05:24.138Z,99433.47
2023-04-18T19:07:51.544Z,99426.81
2023-04-18T19:10:18.377Z,99428.09
2023-04-18T19:12:46.435Z,99432.50
2023-04-18T19:15:13.113Z,99426.25
2023-04-18T19:17:39.798Z,99439.38
2023-04-18T19:20:07.409Z,99441.91
2023-04-18T19:22:34.045Z,99438.84
2023-04-18T19:25:00.953Z,99443.31
2023-04-18T19:27:27.782Z,99442.22
2023-04-18T19:29:55.792Z,99449.38
2023-04-18T19:32:22.411Z,99446.34
2023-04-18T19:34:49.749Z,99442.03
2023-04-18T19:37:16.450Z,99448.56
2023-04-18T19:39:43.208Z,99449.94
2023-04-18T19:42:10.365Z,99439.69
2023-04-18T19:44:37.076Z,99447.03
2023-04-18T19:47:05.087Z,99445.91
2023-04-18T19:49:31.744Z,99446.63
2023-04-18T19:51:58.308Z,99449.13
2023-04-18T19:54:25.171Z,99452.72
2023-04-18T19:56:51.879Z,99446.88
2023-04-18T19:59:18.662Z,99454.13
2023-04-18T20:01:45.389Z,99457.19
2023-04-18T20:04:13.659Z,99459.53
2023-04-18T20:06:40.602Z,99460.50
2023-04-18T20:09:13.185Z,99460.50
2023-04-18T20:11:40.021Z,99462.47
2023-04-18T20:14:06.762Z,99460.25
2023-04-18T20:16:33.634Z,99462.78
2023-04-18T20:19:01.691Z,99464.75
2023-04-18T20:21:29.769Z,99457.38
2023-04-18T20:23:56.685Z,99467.53
2023-04-18T20:26:23.365Z,99467.25
2023-04-18T20:28:49.951Z,99463.22
2023-04-18T20:31:16.653Z,99470.03
2023-04-18T20:33:43.359Z,99466.41
2023-04-18T20:36:10.206Z,99471.97
2023-04-18T20:38:38.272Z,99480.28
2023-04-18T20:41:04.965Z,99480.84
2023-04-18T20:43:36.696Z,99469.59
2023-04-18T20:46:03.404Z,99476.78
2023-04-18T20:48:30.239Z,99471.50
2023-04-18T20:50:56.886Z,99471.38
2023-04-18T20:53:27.177Z,99476.53
2023-04-18T20:55:55.164Z,99479.59
2023-04-18T20:58:21.844Z,99481.84
2023-04-18T21:00:49.033Z,99482.38
2023-04-18T21:03:16.363Z,99474.19
2023-04-18T21:05:43.585Z,99486.41
2023-04-18T21:08:11.077Z,99482.81
2023-04-18T21:10:37.849Z,99487.13
2023-04-18T21:13:05.868Z,99491.16
2023-04-18T21:15:32.605Z,99492.53
2023-04-18T21:17:59.385Z,99486.38
2023-04-18T21:20:26.186Z,99486.19
2023-04-18T21:22:52.765Z,99494.50
2023-04-18T21:25:21.312Z,99490.41
2023-04-18T21:27:48.067Z,99488.16
2023-04-18T21:30:16.104Z,99492.06
2023-04-18T21:32:42.729Z,99492.78
2023-04-18T21:35:09.957Z,99491.56
2023-04-18T21:37:36.649Z,99491.00
2023-04-18T21:40:04.562Z,99500.91
2023-04-18T21:42:31.230Z,99497.84
2023-04-18T21:44:58.086Z,99499.66
2023-04-18T21:47:26.243Z,99494.66
2023-04-18T21:49:53.025Z,99493.53
2023-04-18T21:52:19.723Z,99504.66
2023-04-18T21:54:46.379Z,99493.78
2023-04-18T21:57:12.960Z,99497.97
2023-04-18T21:59:39.607Z,99496.31
2023-04-18T22:02:06.311Z,99501.88
2023-04-18T22:04:34.581Z,99497.84
2023-04-18T22:07:01.500Z,99487.28
2023-04-18T22:09:29.469Z,99507.47
2023-04-18T22:11:57.054Z,99501.47
2023-04-18T22:14:24.760Z,99491.44
2023-04-18T22:16:51.632Z,99495.78
2023-04-18T22:19:19.299Z,99493.00
2023-04-18T22:21:47.401Z,99501.88
2023-04-18T22:24:14.175Z,99506.59
2023-04-18T22:26:41.051Z,99504.97
2023-04-18T22:29:07.667Z,99509.97
2023-04-18T22:31:34.300Z,99502.72
2023-04-18T22:34:00.963Z,99505.63
2023-04-18T22:36:27.793Z,99497.03
2023-04-18T22:38:55.891Z,99506.44
2023-04-18T22:41:22.516Z,99505.56
2023-04-18T22:43:49.181Z,99513.09
2023-04-18T22:46:15.999Z,99512.81
2023-04-18T22:48:44.843Z,99508.09
2023-04-18T22:51:11.754Z,99508.94
2023-04-18T22:53:38.417Z,99508.25
2023-04-18T22:56:06.783Z,99506.41
2023-04-18T22:58:33.887Z,99511.00
2023-04-18T23:01:00.553Z,99509.59
2023-04-18T23:03:27.354Z,99518.50
2023-04-18T23:05:54.072Z,99518.63
2023-04-18T23:08:22.554Z,99524.97
2023-04-18T23:10:49.213Z,99520.31
2023-04-18T23:13:17.292Z,99528.00
2023-04-18T23:15:43.945Z,99522.72
2023-04-18T23:18:10.636Z,99519.78
2023-04-18T23:20:37.858Z,99525.19
2023-04-18T23:23:04.501Z,99524.63
2023-04-18T23:25:32.167Z,99525.72
2023-04-18T23:27:58.825Z,99527.81
2023-04-18T23:30:26.924Z,99537.81
2023-04-18T23:32:53.919Z,99529.47
2023-04-18T23:35:20.556Z,99526.41
2023-04-18T23:37:47.214Z,99527.38
2023-04-18T23:40:13.773Z,99532.63
2023-04-18T23:42:40.438Z,99535.31
2023-04-18T23:45:07.565Z,99526.16
2023-04-18T23:47:35.689Z,99522.63
2023-04-18T23:50:02.498Z,99517.47
2023-04-18T23:52:29.148Z,99520.47
2023-04-18T23:54:58.663Z,99520.63
2023-04-18T23:57:25.360Z,99518.22
2023-04-18T23:59:51.965Z,99518.22
